Utterson, Canada
Current Conditions -  °F | °C
As of 8:00 AM on Wednesday 26 Nov 2014 (Local Time) from CYQA Reporting Station
Overcast Overcast  
Wind Chill: 27°   Ceiling: 3200
Heat Index: 27°   Visibility: 9mi
Dew Point: 21°   Wind: 2mph
Humidity: 80%   Direction: NA
Pressure: 30.19"   Gusts: NA
Location:  45.22°N, 79.33°W
Report Text: CYQA 261300Z AUTO VRB02KT 9SM OVC032 M03/M06 A3019 RMK PRESRR SLP238
Loading
Personal Weather Stations






























Interactive Weather Map New forecast layout! Learn more

10-Day Weather Forecast

Advertisements
Track Severe Weather on mobile